sensor_id;sensor_type;location;lat;lon;timestamp;pressure;altitude;pressure_sealevel;temperature;humidity
23677;BME280;31493;49.058;12.190;2023-09-07T00:01:31;96568.00;;;16.95;75.55
23677;BME280;31493;49.058;12.190;2023-09-07T00:03:58;96577.25;;;16.99;75.73
23677;BME280;31493;49.058;12.190;2023-09-07T00:06:25;96574.63;;;16.99;75.58
23677;BME280;31493;49.058;12.190;2023-09-07T00:08:52;96573.38;;;16.94;75.78
23677;BME280;31493;49.058;12.190;2023-09-07T00:11:20;96583.56;;;16.87;76.15
23677;BME280;31493;49.058;12.190;2023-09-07T00:13:47;96571.72;;;16.83;76.32
23677;BME280;31493;49.058;12.190;2023-09-07T00:16:16;96581.50;;;16.91;75.91
23677;BME280;31493;49.058;12.190;2023-09-07T00:18:43;96573.09;;;16.87;76.15
23677;BME280;31493;49.058;12.190;2023-09-07T00:21:10;96566.47;;;16.83;75.99
23677;BME280;31493;49.058;12.190;2023-09-07T00:23:39;96563.84;;;16.83;76.33
23677;BME280;31493;49.058;12.190;2023-09-07T00:26:07;96571.31;;;16.88;75.62
23677;BME280;31493;49.058;12.190;2023-09-07T00:28:35;96575.03;;;16.95;75.44
23677;BME280;31493;49.058;12.190;2023-09-07T00:31:02;96572.81;;;17.00;75.08
23677;BME280;31493;49.058;12.190;2023-09-07T00:33:29;96564.69;;;16.93;74.97
23677;BME280;31493;49.058;12.190;2023-09-07T00:35:56;96564.25;;;16.98;74.87
23677;BME280;31493;49.058;12.190;2023-09-07T00:38:23;96559.72;;;16.90;75.13
23677;BME280;31493;49.058;12.190;2023-09-07T00:40:50;96558.88;;;16.90;75.02
23677;BME280;31493;49.058;12.190;2023-09-07T00:43:17;96551.59;;;16.93;75.04
23677;BME280;31493;49.058;12.190;2023-09-07T00:45:46;96558.75;;;16.91;75.09
23677;BME280;31493;49.058;12.190;2023-09-07T00:48:14;96556.13;;;16.82;75.09
23677;BME280;31493;49.058;12.190;2023-09-07T00:50:42;96564.53;;;16.85;75.10
23677;BME280;31493;49.058;12.190;2023-09-07T00:53:10;96560.13;;;16.76;75.69
23677;BME280;31493;49.058;12.190;2023-09-07T00:55:38;96554.22;;;16.74;75.69
23677;BME280;31493;49.058;12.190;2023-09-07T00:58:05;96554.56;;;16.60;76.54
23677;BME280;31493;49.058;12.190;2023-09-07T01:00:33;96554.41;;;16.61;76.47
23677;BME280;31493;49.058;12.190;2023-09-07T01:03:02;96556.06;;;16.53;76.96
23677;BME280;31493;49.058;12.190;2023-09-07T01:05:30;96552.66;;;16.62;76.90
23677;BME280;31493;49.058;12.190;2023-09-07T01:08:05;96553.84;;;16.38;78.02
23677;BME280;31493;49.058;12.190;2023-09-07T01:10:33;96550.09;;;16.31;78.22
23677;BME280;31493;49.058;12.190;2023-09-07T01:13:00;96566.75;;;16.30;78.26
23677;BME280;31493;49.058;12.190;2023-09-07T01:15:27;96550.63;;;16.25;78.51
23677;BME280;31493;49.058;12.190;2023-09-07T01:17:55;96550.63;;;16.25;78.34
23677;BME280;31493;49.058;12.190;2023-09-07T01:20:24;96550.78;;;16.33;78.57
23677;BME280;31493;49.058;12.190;2023-09-07T01:22:54;96554.75;;;16.28;78.32
23677;BME280;31493;49.058;12.190;2023-09-07T01:25:21;96540.19;;;16.25;78.08
23677;BME280;31493;49.058;12.190;2023-09-07T01:27:50;96546.09;;;16.27;78.29
23677;BME280;31493;49.058;12.190;2023-09-07T01:30:17;96537.97;;;16.30;77.85
23677;BME280;31493;49.058;12.190;2023-09-07T01:32:45;96533.69;;;16.29;77.78
23677;BME280;31493;49.058;12.190;2023-09-07T01:35:13;96530.53;;;16.26;77.88
23677;BME280;31493;49.058;12.190;2023-09-07T01:37:42;96532.03;;;16.28;77.64
23677;BME280;31493;49.058;12.190;2023-09-07T01:40:11;96532.84;;;16.19;77.98
23677;BME280;31493;49.058;12.190;2023-09-07T01:42:38;96541.78;;;16.16;78.17
23677;BME280;31493;49.058;12.190;2023-09-07T01:45:05;96536.69;;;16.15;78.29
23677;BME280;31493;49.058;12.190;2023-09-07T01:47:33;96536.31;;;16.19;77.70
23677;BME280;31493;49.058;12.190;2023-09-07T01:50:00;96537.94;;;16.21;77.70
23677;BME280;31493;49.058;12.190;2023-09-07T01:52:27;96528.69;;;16.16;77.80
23677;BME280;31493;49.058;12.190;2023-09-07T01:54:55;96528.03;;;16.14;77.90
23677;BME280;31493;49.058;12.190;2023-09-07T01:57:23;96541.06;;;16.05;78.27
23677;BME280;31493;49.058;12.190;2023-09-07T01:59:50;96533.00;;;15.87;79.15
23677;BME280;31493;49.058;12.190;2023-09-07T02:02:17;96536.19;;;15.90;79.21
23677;BME280;31493;49.058;12.190;2023-09-07T02:04:44;96536.19;;;15.90;79.03
23677;BME280;31493;49.058;12.190;2023-09-07T02:07:12;96537.38;;;15.77;79.54
23677;BME280;31493;49.058;12.190;2023-09-07T02:09:40;96536.56;;;15.76;79.88
23677;BME280;31493;49.058;12.190;2023-09-07T02:12:08;96532.25;;;15.75;79.62
23677;BME280;31493;49.058;12.190;2023-09-07T02:14:37;96520.28;;;15.73;79.93
23677;BME280;31493;49.058;12.190;2023-09-07T02:17:04;96531.72;;;15.72;79.87
23677;BME280;31493;49.058;12.190;2023-09-07T02:19:32;96523.91;;;15.60;80.05
23677;BME280;31493;49.058;12.190;2023-09-07T02:21:58;96525.19;;;15.66;80.00
23677;BME280;31493;49.058;12.190;2023-09-07T02:24:25;96527.81;;;15.66;79.94
23677;BME280;31493;49.058;12.190;2023-09-07T02:26:52;96526.34;;;15.73;79.41
23677;BME280;31493;49.058;12.190;2023-09-07T02:29:19;96520.78;;;15.66;79.43
23677;BME280;31493;49.058;12.190;2023-09-07T02:31:48;96526.69;;;15.69;79.65
23677;BME280;31493;49.058;12.190;2023-09-07T02:34:15;96533.53;;;15.60;79.67
23677;BME280;31493;49.058;12.190;2023-09-07T02:36:42;96528.63;;;15.66;79.16
23677;BME280;31493;49.058;12.190;2023-09-07T02:39:09;96532.34;;;15.64;78.99
23677;BME280;31493;49.058;12.190;2023-09-07T02:41:37;96521.13;;;15.73;78.52
23677;BME280;31493;49.058;12.190;2023-09-07T02:44:05;96520.66;;;15.68;78.79
23677;BME280;31493;49.058;12.190;2023-09-07T02:46:32;96526.16;;;15.65;78.88
23677;BME280;31493;49.058;12.190;2023-09-07T02:49:00;96519.38;;;15.62;78.76
23677;BME280;31493;49.058;12.190;2023-09-07T02:51:27;96516.38;;;15.67;78.60
23677;BME280;31493;49.058;12.190;2023-09-07T02:53:56;96519.13;;;15.65;78.85
23677;BME280;31493;49.058;12.190;2023-09-07T02:56:24;96523.91;;;15.60;78.94
23677;BME280;31493;49.058;12.190;2023-09-07T02:58:51;96523.66;;;15.63;78.48
23677;BME280;31493;49.058;12.190;2023-09-07T03:01:18;96522.72;;;15.64;78.54
23677;BME280;31493;49.058;12.190;2023-09-07T03:03:47;96523.53;;;15.65;78.35
23677;BME280;31493;49.058;12.190;2023-09-07T03:23:07;96528.09;;;15.42;78.92
23677;BME280;31493;49.058;12.190;2023-09-07T03:25:34;96523.44;;;15.46;78.62
23677;BME280;31493;49.058;12.190;2023-09-07T03:28:01;96530.09;;;15.38;78.80
23677;BME280;31493;49.058;12.190;2023-09-07T03:30:29;96530.53;;;15.34;78.77
23677;BME280;31493;49.058;12.190;2023-09-07T03:32:56;96530.63;;;15.32;78.77
23677;BME280;31493;49.058;12.190;2023-09-07T03:35:23;96524.25;;;15.46;77.62
23677;BME280;31493;49.058;12.190;2023-09-07T03:37:50;96527.56;;;15.48;77.37
23677;BME280;31493;49.058;12.190;2023-09-07T03:40:18;96526.66;;;15.59;76.92
23677;BME280;31493;49.058;12.190;2023-09-07T03:42:45;96527.56;;;15.48;76.99
23677;BME280;31493;49.058;12.190;2023-09-07T03:45:13;96520.06;;;15.34;77.86
23677;BME280;31493;49.058;12.190;2023-09-07T03:47:40;96533.00;;;15.15;79.18
23677;BME280;31493;49.058;12.190;2023-09-07T03:50:07;96532.94;;;15.05;80.19
23677;BME280;31493;49.058;12.190;2023-09-07T03:52:34;96532.78;;;15.06;80.32
23677;BME280;31493;49.058;12.190;2023-09-07T03:55:02;96533.75;;;15.05;80.53
23677;BME280;31493;49.058;12.190;2023-09-07T03:57:30;96543.78;;;14.89;81.25
23677;BME280;31493;49.058;12.190;2023-09-07T03:59:58;96539.66;;;14.87;81.36
23677;BME280;31493;49.058;12.190;2023-09-07T04:02:25;96528.41;;;14.86;81.53
23677;BME280;31493;49.058;12.190;2023-09-07T04:04:53;96530.53;;;14.81;81.45
23677;BME280;31493;49.058;12.190;2023-09-07T04:07:20;96523.81;;;14.99;80.91
23677;BME280;31493;49.058;12.190;2023-09-07T04:09:47;96518.69;;;14.77;81.39
23677;BME280;31493;49.058;12.190;2023-09-07T04:12:14;96523.47;;;14.72;82.02
23677;BME280;31493;49.058;12.190;2023-09-07T04:14:43;96524.91;;;14.65;82.36
23677;BME280;31493;49.058;12.190;2023-09-07T04:17:10;96527.50;;;14.65;82.37
23677;BME280;31493;49.058;12.190;2023-09-07T04:19:37;96513.88;;;14.61;82.28
23677;BME280;31493;49.058;12.190;2023-09-07T04:22:04;96529.63;;;14.71;81.84
23677;BME280;31493;49.058;12.190;2023-09-07T04:24:32;96522.88;;;14.68;81.70
23677;BME280;31493;49.058;12.190;2023-09-07T04:26:59;96526.31;;;14.69;81.35
23677;BME280;31493;49.058;12.190;2023-09-07T04:29:27;96530.34;;;14.62;81.73
23677;BME280;31493;49.058;12.190;2023-09-07T04:31:55;96521.09;;;14.57;82.11
23677;BME280;31493;49.058;12.190;2023-09-07T04:34:23;96526.00;;;14.62;81.99
23677;BME280;31493;49.058;12.190;2023-09-07T04:36:50;96535.66;;;14.71;81.78
23677;BME280;31493;49.058;12.190;2023-09-07T04:39:17;96533.31;;;14.68;81.89
23677;BME280;31493;49.058;12.190;2023-09-07T04:41:44;96531.53;;;14.69;81.90
23677;BME280;31493;49.058;12.190;2023-09-07T04:44:11;96535.47;;;14.63;82.39
23677;BME280;31493;49.058;12.190;2023-09-07T04:46:38;96532.97;;;14.62;82.16
23677;BME280;31493;49.058;12.190;2023-09-07T04:49:07;96535.94;;;14.57;82.81
23677;BME280;31493;49.058;12.190;2023-09-07T04:51:34;96536.88;;;14.56;82.68
23677;BME280;31493;49.058;12.190;2023-09-07T04:54:01;96531.53;;;14.57;82.96
23677;BME280;31493;49.058;12.190;2023-09-07T04:56:29;96533.31;;;14.57;82.72
23677;BME280;31493;49.058;12.190;2023-09-07T04:58:56;96539.72;;;14.64;82.27
23677;BME280;31493;49.058;12.190;2023-09-07T05:01:23;96538.19;;;14.62;82.41
23677;BME280;31493;49.058;12.190;2023-09-07T05:03:50;96532.97;;;14.62;82.59
23677;BME280;31493;49.058;12.190;2023-09-07T05:06:19;96536.66;;;14.59;82.39
23677;BME280;31493;49.058;12.190;2023-09-07T05:08:47;96547.94;;;14.59;82.34
23677;BME280;31493;49.058;12.190;2023-09-07T05:11:14;96551.13;;;14.63;82.41
23677;BME280;31493;49.058;12.190;2023-09-07T05:13:41;96544.84;;;14.66;82.42
23677;BME280;31493;49.058;12.190;2023-09-07T05:16:08;96542.81;;;14.69;82.06
23677;BME280;31493;49.058;12.190;2023-09-07T05:18:35;96551.78;;;14.76;81.94
23677;BME280;31493;49.058;12.190;2023-09-07T05:21:11;96551.44;;;14.81;82.28
23677;BME280;31493;49.058;12.190;2023-09-07T05:23:39;96558.66;;;14.77;82.20
23677;BME280;31493;49.058;12.190;2023-09-07T05:26:06;96559.41;;;14.79;82.15
23677;BME280;31493;49.058;12.190;2023-09-07T05:28:33;96553.31;;;14.90;81.57
23677;BME280;31493;49.058;12.190;2023-09-07T05:31:01;96556.03;;;14.89;81.80
23677;BME280;31493;49.058;12.190;2023-09-07T05:33:28;96560.75;;;14.95;81.54
23677;BME280;31493;49.058;12.190;2023-09-07T05:35:55;96570.69;;;15.01;80.86
23677;BME280;31493;49.058;12.190;2023-09-07T05:38:22;96560.69;;;15.06;80.42
23677;BME280;31493;49.058;12.190;2023-09-07T05:40:50;96562.56;;;15.15;80.45
23677;BME280;31493;49.058;12.190;2023-09-07T05:43:20;96569.75;;;15.23;80.28
23677;BME280;31493;49.058;12.190;2023-09-07T05:45:47;96569.19;;;15.19;80.40
23677;BME280;31493;49.058;12.190;2023-09-07T05:48:14;96570.22;;;15.28;80.02
23677;BME280;31493;49.058;12.190;2023-09-07T05:50:43;96576.97;;;15.30;80.03
23677;BME280;31493;49.058;12.190;2023-09-07T05:53:10;96573.28;;;15.33;79.95
23677;BME280;31493;49.058;12.190;2023-09-07T05:55:37;96577.53;;;15.34;79.79
23677;BME280;31493;49.058;12.190;2023-09-07T05:58:07;96574.88;;;15.45;79.42
23677;BME280;31493;49.058;12.190;2023-09-07T06:00:35;96583.28;;;15.49;78.94
23677;BME280;31493;49.058;12.190;2023-09-07T06:03:05;96583.44;;;15.57;79.05
23677;BME280;31493;49.058;12.190;2023-09-07T06:05:33;96584.34;;;15.67;78.11
23677;BME280;31493;49.058;12.190;2023-09-07T06:08:00;96586.09;;;15.78;78.03
23677;BME280;31493;49.058;12.190;2023-09-07T06:10:27;96587.38;;;15.83;77.77
23677;BME280;31493;49.058;12.190;2023-09-07T06:12:54;96596.47;;;15.89;77.55
23677;BME280;31493;49.058;12.190;2023-09-07T06:15:23;96593.19;;;15.97;77.34
23677;BME280;31493;49.058;12.190;2023-09-07T06:17:50;96584.16;;;16.01;77.01
23677;BME280;31493;49.058;12.190;2023-09-07T06:20:17;96590.88;;;16.03;77.09
23677;BME280;31493;49.058;12.190;2023-09-07T06:22:45;96582.53;;;16.09;77.26
23677;BME280;31493;49.058;12.190;2023-09-07T06:25:12;96591.47;;;16.07;76.91
23677;BME280;31493;49.058;12.190;2023-09-07T06:27:39;96591.34;;;16.18;76.70
23677;BME280;31493;49.058;12.190;2023-09-07T06:30:07;96598.97;;;16.31;76.32
23677;BME280;31493;49.058;12.190;2023-09-07T06:32:36;96595.97;;;16.35;76.03
23677;BME280;31493;49.058;12.190;2023-09-07T06:35:05;96595.59;;;16.50;76.45
23677;BME280;31493;49.058;12.190;2023-09-07T06:37:32;96601.25;;;16.55;75.57
23677;BME280;31493;49.058;12.190;2023-09-07T06:39:59;96600.59;;;16.62;75.09
23677;BME280;31493;49.058;12.190;2023-09-07T06:42:26;96607.34;;;16.65;75.11
23677;BME280;31493;49.058;12.190;2023-09-07T06:44:53;96596.31;;;16.71;75.06
23677;BME280;31493;49.058;12.190;2023-09-07T06:47:20;96611.13;;;16.82;74.83
23677;BME280;31493;49.058;12.190;2023-09-07T06:49:48;96612.25;;;16.98;74.75
23677;BME280;31493;49.058;12.190;2023-09-07T06:52:16;96614.88;;;17.08;73.90
23677;BME280;31493;49.058;12.190;2023-09-07T06:54:43;96610.72;;;17.15;73.59
23677;BME280;31493;49.058;12.190;2023-09-07T06:57:10;96615.28;;;17.13;73.36
23677;BME280;31493;49.058;12.190;2023-09-07T06:59:37;96601.75;;;17.27;72.53
23677;BME280;31493;49.058;12.190;2023-09-07T07:02:04;96597.63;;;17.35;72.02
23677;BME280;31493;49.058;12.190;2023-09-07T07:04:31;96605.06;;;17.39;71.80
23677;BME280;31493;49.058;12.190;2023-09-07T07:06:59;96607.13;;;17.45;71.92
23677;BME280;31493;49.058;12.190;2023-09-07T07:09:29;96592.38;;;17.54;72.06
23677;BME280;31493;49.058;12.190;2023-09-07T07:11:59;96597.19;;;17.59;71.26
23677;BME280;31493;49.058;12.190;2023-09-07T07:14:26;96608.09;;;17.73;71.72
23677;BME280;31493;49.058;12.190;2023-09-07T07:16:53;96610.38;;;17.96;71.00
23677;BME280;31493;49.058;12.190;2023-09-07T07:19:20;96609.88;;;18.20;70.08
23677;BME280;31493;49.058;12.190;2023-09-07T07:21:48;96612.00;;;18.06;70.12
23677;BME280;31493;49.058;12.190;2023-09-07T07:24:17;96606.59;;;18.18;69.59
23677;BME280;31493;49.058;12.190;2023-09-07T07:26:45;96606.41;;;18.29;70.08
23677;BME280;31493;49.058;12.190;2023-09-07T07:29:12;96612.47;;;18.29;69.03
23677;BME280;31493;49.058;12.190;2023-09-07T07:31:42;96615.19;;;18.38;68.15
23677;BME280;31493;49.058;12.190;2023-09-07T07:34:09;96615.59;;;18.43;67.54
23677;BME280;31493;49.058;12.190;2023-09-07T07:36:36;96616.06;;;18.56;67.91
23677;BME280;31493;49.058;12.190;2023-09-07T07:39:06;96618.94;;;18.72;67.61
23677;BME280;31493;49.058;12.190;2023-09-07T07:41:35;96612.34;;;18.86;67.54
23677;BME280;31493;49.058;12.190;2023-09-07T07:44:03;96605.25;;;18.69;66.77
23677;BME280;31493;49.058;12.190;2023-09-07T07:46:30;96613.50;;;18.74;67.22
23677;BME280;31493;49.058;12.190;2023-09-07T07:48:57;96610.97;;;19.00;66.27
23677;BME280;31493;49.058;12.190;2023-09-07T07:51:24;96612.91;;;19.07;66.10
23677;BME280;31493;49.058;12.190;2023-09-07T07:53:53;96621.06;;;19.22;66.96
23677;BME280;31493;49.058;12.190;2023-09-07T07:56:21;96617.06;;;19.36;65.84
23677;BME280;31493;49.058;12.190;2023-09-07T07:58:49;96620.47;;;19.28;65.60
23677;BME280;31493;49.058;12.190;2023-09-07T08:01:17;96622.03;;;19.39;64.26
23677;BME280;31493;49.058;12.190;2023-09-07T08:03:46;96628.41;;;19.72;64.53
23677;BME280;31493;49.058;12.190;2023-09-07T08:06:13;96624.38;;;19.60;62.45
23677;BME280;31493;49.058;12.190;2023-09-07T08:08:40;96626.56;;;19.64;63.38
23677;BME280;31493;49.058;12.190;2023-09-07T08:11:07;96620.63;;;19.62;62.20
23677;BME280;31493;49.058;12.190;2023-09-07T08:13:35;96620.97;;;19.67;61.80
23677;BME280;31493;49.058;12.190;2023-09-07T08:16:04;96624.97;;;19.72;62.07
23677;BME280;31493;49.058;12.190;2023-09-07T08:18:32;96630.84;;;19.91;62.00
23677;BME280;31493;49.058;12.190;2023-09-07T08:21:00;96623.22;;;20.06;60.94
23677;BME280;31493;49.058;12.190;2023-09-07T08:23:27;96620.06;;;20.03;59.61
23677;BME280;31493;49.058;12.190;2023-09-07T08:25:54;96628.53;;;20.14;60.04
23677;BME280;31493;49.058;12.190;2023-09-07T08:28:21;96613.94;;;20.28;61.43
23677;BME280;31493;49.058;12.190;2023-09-07T08:30:49;96625.88;;;20.40;60.90
23677;BME280;31493;49.058;12.190;2023-09-07T08:33:20;96613.78;;;20.56;58.71
23677;BME280;31493;49.058;12.190;2023-09-07T08:35:52;96628.22;;;20.43;57.65
23677;BME280;31493;49.058;12.190;2023-09-07T08:38:21;96623.59;;;20.45;58.02
23677;BME280;31493;49.058;12.190;2023-09-07T08:40:55;96628.56;;;20.49;58.52
23677;BME280;31493;49.058;12.190;2023-09-07T08:43:28;96625.22;;;20.81;60.08
23677;BME280;31493;49.058;12.190;2023-09-07T08:46:04;96621.88;;;20.70;58.57
23677;BME280;31493;49.058;12.190;2023-09-07T08:48:39;96631.41;;;20.63;58.55
23677;BME280;31493;49.058;12.190;2023-09-07T08:51:09;96618.25;;;20.63;57.41
23677;BME280;31493;49.058;12.190;2023-09-07T08:53:39;96621.94;;;20.87;58.41
23677;BME280;31493;49.058;12.190;2023-09-07T08:56:06;96622.44;;;20.90;56.89
23677;BME280;31493;49.058;12.190;2023-09-07T08:58:35;96615.22;;;21.09;57.27
23677;BME280;31493;49.058;12.190;2023-09-07T09:01:02;96610.13;;;21.07;55.42
23677;BME280;31493;49.058;12.190;2023-09-07T09:03:29;96610.16;;;21.15;55.66
23677;BME280;31493;49.058;12.190;2023-09-07T09:05:58;96617.56;;;21.28;54.70
23677;BME280;31493;49.058;12.190;2023-09-07T09:08:25;96615.97;;;21.35;54.63
23677;BME280;31493;49.058;12.190;2023-09-07T09:10:59;96621.72;;;21.39;52.75
23677;BME280;31493;49.058;12.190;2023-09-07T09:13:30;96618.09;;;21.56;54.81
23677;BME280;31493;49.058;12.190;2023-09-07T09:15:59;96624.84;;;21.59;52.90
23677;BME280;31493;49.058;12.190;2023-09-07T09:18:27;96611.16;;;21.39;52.14
23677;BME280;31493;49.058;12.190;2023-09-07T09:20:54;96618.25;;;21.55;52.81
23677;BME280;31493;49.058;12.190;2023-09-07T09:23:23;96622.88;;;21.69;54.39
23677;BME280;31493;49.058;12.190;2023-09-07T09:25:50;96625.88;;;21.90;53.69
23677;BME280;31493;49.058;12.190;2023-09-07T09:28:17;96613.63;;;21.97;52.15
23677;BME280;31493;49.058;12.190;2023-09-07T09:30:44;96613.28;;;22.09;51.03
23677;BME280;31493;49.058;12.190;2023-09-07T09:33:11;96615.56;;;22.12;51.39
23677;BME280;31493;49.058;12.190;2023-09-07T09:35:39;96612.63;;;22.15;49.98
23677;BME280;31493;49.058;12.190;2023-09-07T09:38:06;96611.91;;;22.29;50.68
23677;BME280;31493;49.058;12.190;2023-09-07T09:40:34;96603.06;;;22.53;49.06
23677;BME280;31493;49.058;12.190;2023-09-07T09:43:02;96619.66;;;22.30;49.08
23677;BME280;31493;49.058;12.190;2023-09-07T09:45:30;96611.59;;;22.24;48.99
23677;BME280;31493;49.058;12.190;2023-09-07T09:47:57;96626.09;;;22.20;49.51
23677;BME280;31493;49.058;12.190;2023-09-07T09:50:26;96621.31;;;22.23;48.94
23677;BME280;31493;49.058;12.190;2023-09-07T09:52:54;96612.69;;;22.46;49.29
23677;BME280;31493;49.058;12.190;2023-09-07T09:55:22;96613.28;;;22.56;50.71
23677;BME280;31493;49.058;12.190;2023-09-07T09:57:50;96628.38;;;22.86;49.07
23677;BME280;31493;49.058;12.190;2023-09-07T10:00:18;96612.13;;;22.58;47.33
23677;BME280;31493;49.058;12.190;2023-09-07T10:02:58;96613.69;;;22.84;48.58
23677;BME280;31493;49.058;12.190;2023-09-07T10:05:26;96614.19;;;22.79;47.66
23677;BME280;31493;49.058;12.190;2023-09-07T10:08:00;96610.03;;;22.85;46.79
23677;BME280;31493;49.058;12.190;2023-09-07T10:10:34;96617.34;;;22.83;47.05
23677;BME280;31493;49.058;12.190;2023-09-07T10:13:05;96615.59;;;23.21;48.20
23677;BME280;31493;49.058;12.190;2023-09-07T10:15:32;96608.50;;;23.22;45.86
23677;BME280;31493;49.058;12.190;2023-09-07T10:18:11;96600.44;;;23.15;46.19
23677;BME280;31493;49.058;12.190;2023-09-07T10:20:50;96600.97;;;23.33;46.21
23677;BME280;31493;49.058;12.190;2023-09-07T10:23:17;96599.22;;;23.26;45.51
23677;BME280;31493;49.058;12.190;2023-09-07T10:25:47;96595.63;;;23.42;44.69
23677;BME280;31493;49.058;12.190;2023-09-07T10:28:23;96602.44;;;23.59;45.58
23677;BME280;31493;49.058;12.190;2023-09-07T10:31:01;96592.44;;;23.69;45.12
23677;BME280;31493;49.058;12.190;2023-09-07T10:33:30;96596.47;;;23.42;43.62
23677;BME280;31493;49.058;12.190;2023-09-07T10:35:57;96594.63;;;23.43;44.58
23677;BME280;31493;49.058;12.190;2023-09-07T10:38:25;96592.78;;;23.66;43.51
23677;BME280;31493;49.058;12.190;2023-09-07T10:40:56;96596.03;;;23.53;42.39
23677;BME280;31493;49.058;12.190;2023-09-07T10:43:28;96589.97;;;23.68;43.19
23677;BME280;31493;49.058;12.190;2023-09-07T10:45:56;96587.34;;;23.68;41.14
23677;BME280;31493;49.058;12.190;2023-09-07T10:48:24;96585.94;;;23.72;41.52
23677;BME280;31493;49.058;12.190;2023-09-07T10:50:52;96585.34;;;23.84;40.76
23677;BME280;31493;49.058;12.190;2023-09-07T10:53:27;96581.72;;;24.00;39.58
23677;BME280;31493;49.058;12.190;2023-09-07T10:55:56;96585.53;;;23.98;38.15
23677;BME280;31493;49.058;12.190;2023-09-07T10:58:25;96582.13;;;24.12;39.09
23677;BME280;31493;49.058;12.190;2023-09-07T11:00:54;96575.81;;;24.13;38.72
23677;BME280;31493;49.058;12.190;2023-09-07T11:03:21;96578.53;;;24.19;37.60
23677;BME280;31493;49.058;12.190;2023-09-07T11:05:48;96564.00;;;24.45;36.29
23677;BME280;31493;49.058;12.190;2023-09-07T11:08:18;96564.28;;;24.21;38.26
23677;BME280;31493;49.058;12.190;2023-09-07T11:10:45;96552.59;;;24.15;37.87
23677;BME280;31493;49.058;12.190;2023-09-07T11:13:12;96563.81;;;24.32;39.24
23677;BME280;31493;49.058;12.190;2023-09-07T11:15:42;96559.34;;;24.32;40.03
23677;BME280;31493;49.058;12.190;2023-09-07T11:18:10;96563.38;;;24.28;39.72
23677;BME280;31493;49.058;12.190;2023-09-07T11:20:38;96566.47;;;24.32;40.51
23677;BME280;31493;49.058;12.190;2023-09-07T11:23:05;96558.00;;;24.72;41.05
23677;BME280;31493;49.058;12.190;2023-09-07T11:25:36;96554.06;;;24.83;40.90
23677;BME280;31493;49.058;12.190;2023-09-07T11:28:05;96550.88;;;25.09;41.09
23677;BME280;31493;49.058;12.190;2023-09-07T11:30:32;96545.81;;;24.93;39.91
23677;BME280;31493;49.058;12.190;2023-09-07T11:33:04;96551.25;;;25.06;40.09
23677;BME280;31493;49.058;12.190;2023-09-07T11:35:32;96540.44;;;24.86;39.07
23677;BME280;31493;49.058;12.190;2023-09-07T11:38:00;96540.94;;;24.75;40.22
23677;BME280;31493;49.058;12.190;2023-09-07T11:40:29;96541.72;;;25.12;41.72
23677;BME280;31493;49.058;12.190;2023-09-07T11:42:56;96529.88;;;25.14;41.83
23677;BME280;31493;49.058;12.190;2023-09-07T11:45:24;96536.00;;;25.15;41.15
23677;BME280;31493;49.058;12.190;2023-09-07T11:47:51;96526.50;;;24.99;41.29
23677;BME280;31493;49.058;12.190;2023-09-07T11:50:18;96525.66;;;25.20;42.36
23677;BME280;31493;49.058;12.190;2023-09-07T11:52:47;96522.94;;;25.35;41.99
23677;BME280;31493;49.058;12.190;2023-09-07T11:55:15;96523.75;;;25.35;41.78
23677;BME280;31493;49.058;12.190;2023-09-07T11:57:42;96531.06;;;25.33;42.88
23677;BME280;31493;49.058;12.190;2023-09-07T12:00:11;96522.88;;;25.49;42.55
23677;BME280;31493;49.058;12.190;2023-09-07T12:02:38;96529.69;;;25.59;43.43
23677;BME280;31493;49.058;12.190;2023-09-07T12:05:06;96537.31;;;25.68;42.23
23677;BME280;31493;49.058;12.190;2023-09-07T12:07:35;96533.50;;;25.49;41.46
23677;BME280;31493;49.058;12.190;2023-09-07T12:10:04;96528.47;;;25.89;42.42
23677;BME280;31493;49.058;12.190;2023-09-07T12:12:31;96527.50;;;25.69;41.92
23677;BME280;31493;49.058;12.190;2023-09-07T12:15:00;96531.66;;;25.78;42.03
23677;BME280;31493;49.058;12.190;2023-09-07T12:17:29;96534.75;;;26.10;40.93
23677;BME280;31493;49.058;12.190;2023-09-07T12:19:56;96525.84;;;25.96;42.10
23677;BME280;31493;49.058;12.190;2023-09-07T12:22:23;96533.78;;;26.24;42.75
23677;BME280;31493;49.058;12.190;2023-09-07T12:24:50;96535.34;;;26.12;42.85
23677;BME280;31493;49.058;12.190;2023-09-07T12:27:19;96528.53;;;26.02;41.93
23677;BME280;31493;49.058;12.190;2023-09-07T12:29:46;96529.41;;;26.44;40.87
23677;BME280;31493;49.058;12.190;2023-09-07T12:32:12;96520.41;;;26.45;41.74
23677;BME280;31493;49.058;12.190;2023-09-07T12:34:39;96512.28;;;26.19;42.01
23677;BME280;31493;49.058;12.190;2023-09-07T12:37:07;96508.09;;;26.38;40.85
23677;BME280;31493;49.058;12.190;2023-09-07T12:39:34;96505.75;;;26.15;40.50
23677;BME280;31493;49.058;12.190;2023-09-07T12:42:01;96505.97;;;26.20;41.54
23677;BME280;31493;49.058;12.190;2023-09-07T12:44:30;96510.00;;;26.50;42.12
23677;BME280;31493;49.058;12.190;2023-09-07T12:46:58;96510.97;;;26.49;41.93
23677;BME280;31493;49.058;12.190;2023-09-07T12:49:25;96510.09;;;26.83;42.10
23677;BME280;31493;49.058;12.190;2023-09-07T12:51:52;96502.66;;;26.59;40.62
23677;BME280;31493;49.058;12.190;2023-09-07T12:54:19;96501.56;;;26.47;40.39
23677;BME280;31493;49.058;12.190;2023-09-07T12:56:46;96499.47;;;26.29;40.58
23677;BME280;31493;49.058;12.190;2023-09-07T12:59:13;96503.69;;;26.65;41.49
23677;BME280;31493;49.058;12.190;2023-09-07T13:01:41;96505.63;;;26.36;40.26
23677;BME280;31493;49.058;12.190;2023-09-07T13:04:08;96502.19;;;26.49;40.77
23677;BME280;31493;49.058;12.190;2023-09-07T13:06:37;96495.16;;;26.69;41.09
23677;BME280;31493;49.058;12.190;2023-09-07T13:09:05;96490.34;;;26.51;40.79
23677;BME280;31493;49.058;12.190;2023-09-07T13:11:33;96494.44;;;26.54;40.27